Terminal Aerodrome Forecast
Issued by NWS Twin Cities, MN

Home | Current Version | Previous Version | Text Only | Print | Product List | Glossary On
Versions: 1 2 3 4 5 6 7 8 9 10 11 12 13 14
000
FTUS43 KMPX 271720
TAFSTC
TAF
KSTC 271720Z 2718/2818 31007KT P6SM SKC
     FM280000 VRB03KT P6SM SCT150
     FM281200 34005KT P6SM SCT100 BKN200
     FM281500 36006KT P6SM BKN050 OVC100=

USA.gov is the U.S. government's official web portal to all federal, state and local government web resources and services.